Zell Am See, Austria
Current Conditions -  °F | °C
As of 4:50 AM on Saturday 20 Dec 2014 (Local Time) from LOWS Reporting Station
Rain Showers Rain Showers  
Wind Chill: 42°   Ceiling: 4500
Heat Index: 46°   Visibility: 6mi
Dew Point: 41°   Wind: 9mph
Humidity: 81%   Direction: 250°WSW
Pressure: 30.18"   Gusts: NA
Location:  47.32°N, 12.78°E
Report Text: LOWS 200250Z 25008KT 220V290 9999 VCSH SCT025 BKN045 08/05 Q1022 NOSIG
Loading
Personal Weather Stations






























Interactive Weather Map New forecast layout! Learn more

10-Day Weather Forecast

Advertisements
Track Severe Weather on mobile